createdAt,value
2016-04-03T15:31:42.644Z,1001.64
2016-04-03T15:32:42.600Z,1001.62
2016-04-03T15:33:42.588Z,1001.63
2016-04-03T15:34:42.559Z,1001.62
2016-04-03T15:35:42.546Z,1001.56
2016-04-03T15:36:42.518Z,1001.57
2016-04-03T15:37:42.490Z,1001.58
2016-04-03T15:38:42.476Z,1001.63
2016-04-03T15:39:42.447Z,1001.63
2016-04-03T15:40:42.434Z,1001.6
2016-04-03T15:41:42.406Z,1001.57
2016-04-03T15:42:42.392Z,1001.55
2016-04-03T15:43:42.381Z,1001.53
2016-04-03T15:44:42.368Z,1001.49
2016-04-03T15:45:42.338Z,1001.43
2016-04-03T15:46:42.325Z,1001.4
2016-04-03T15:47:42.312Z,1001.38
2016-04-03T15:48:42.300Z,1001.38
2016-04-03T15:49:42.286Z,1001.36
2016-04-03T15:50:42.274Z,1001.34
2016-04-03T15:51:42.245Z,1001.35
2016-04-03T15:52:42.232Z,1001.35
2016-04-03T15:53:42.219Z,1001.38
2016-04-03T15:54:42.206Z,1001.36
2016-04-03T15:55:42.194Z,1001.36
2016-04-03T15:56:42.165Z,1001.35
2016-04-03T15:57:42.168Z,1001.39
2016-04-03T15:58:42.138Z,1001.39
2016-04-03T15:59:42.126Z,1001.37
2016-04-03T16:00:42.130Z,1001.39
2016-04-03T16:01:42.100Z,1001.35
2016-04-03T16:02:42.087Z,1001.34
2016-04-03T16:03:42.074Z,1001.35
2016-04-03T16:04:42.062Z,1001.33
2016-04-03T16:05:42.033Z,1001.37
2016-04-03T16:06:42.021Z,1001.37
2016-04-03T16:07:42.007Z,1001.37
2016-04-03T16:08:41.994Z,1001.33
2016-04-03T16:09:41.997Z,1001.39
2016-04-03T16:10:41.968Z,1001.37
2016-04-03T16:11:41.956Z,1001.37
2016-04-03T16:12:41.942Z,1001.36
2016-04-03T16:13:41.929Z,1001.34
2016-04-03T16:14:41.917Z,1001.39
2016-04-03T16:15:41.904Z,1001.4
2016-04-03T16:16:41.890Z,1001.41
2016-04-03T16:17:41.878Z,1001.36
2016-04-03T16:18:41.865Z,1001.34
2016-04-03T16:19:41.836Z,1001.34
2016-04-03T16:20:41.823Z,1001.31
2016-04-03T16:21:41.810Z,1001.28
2016-04-03T16:22:41.798Z,1001.26
2016-04-03T16:23:41.784Z,1001.23
2016-04-03T16:24:41.771Z,1001.23
2016-04-03T16:25:41.758Z,1001.19
2016-04-03T16:26:41.746Z,1001.24
2016-04-03T16:27:41.733Z,1001.2
2016-04-03T16:28:41.720Z,1001.21
2016-04-03T16:29:41.707Z,1001.19
2016-04-03T16:30:41.694Z,1001.16
2016-04-03T16:31:41.681Z,1001.17
2016-04-03T16:32:41.652Z,1001.13
2016-04-03T16:33:41.640Z,1001.11
2016-04-03T16:34:41.627Z,1001.14
2016-04-03T16:35:41.613Z,1001.11
2016-04-03T16:36:41.601Z,1001.14
2016-04-03T16:37:41.588Z,1001.11
2016-04-03T16:38:41.574Z,1001.11
2016-04-03T16:39:41.562Z,1001.1
2016-04-03T16:40:41.549Z,1001.09
2016-04-03T16:41:41.536Z,1001.1
2016-04-03T16:42:41.507Z,1001.11
2016-04-03T16:43:41.510Z,1001.07
2016-04-03T16:44:41.482Z,1001.1
2016-04-03T16:45:41.484Z,1001.08
2016-04-03T16:46:41.456Z,1001.11
2016-04-03T16:47:41.442Z,1001.12
2016-04-03T16:48:41.431Z,1001.08
2016-04-03T16:49:41.417Z,1001.12
2016-04-03T16:50:41.404Z,1001.09
2016-04-03T16:51:41.391Z,1001.05
2016-04-03T16:52:41.378Z,1001.01
2016-04-03T16:53:41.364Z,1001.02
2016-04-03T16:54:41.336Z,1001.02
2016-04-03T16:55:41.324Z,1001.02
2016-04-03T16:56:41.311Z,1001.03
2016-04-03T16:57:41.298Z,1001.02
2016-04-03T16:58:41.285Z,1001.04
2016-04-03T16:59:41.272Z,1001.03
2016-04-03T17:00:41.259Z,1001.01
2016-04-03T17:01:41.247Z,1001.02
2016-04-03T17:02:41.233Z,1001.05
2016-04-03T17:03:41.205Z,1001.08
2016-04-03T17:04:41.191Z,1001.08
2016-04-03T17:05:41.179Z,1001.09
2016-04-03T17:06:41.166Z,1001.08
2016-04-03T17:07:41.152Z,1001.08
2016-04-03T17:08:41.140Z,1001.07
2016-04-03T17:09:41.127Z,1001.05
2016-04-03T17:10:41.099Z,1001.01
2016-04-03T17:11:41.102Z,1001.02
2016-04-03T17:12:41.073Z,1000.99
2016-04-03T17:13:41.060Z,1000.98
2016-04-03T17:14:41.046Z,1000.96
2016-04-03T17:15:41.034Z,1000.95
2016-04-03T17:16:41.036Z,1000.92
2016-04-03T17:17:41.008Z,1000.94
2016-04-03T17:18:40.995Z,1000.93
2016-04-03T17:19:40.967Z,1000.93
2016-04-03T17:20:40.953Z,1000.94
2016-04-03T17:21:40.940Z,1000.95
2016-04-03T17:22:40.927Z,1000.97
2016-04-03T17:23:40.914Z,1000.96
2016-04-03T17:24:40.902Z,1000.97
2016-04-03T17:25:40.888Z,1000.98
2016-04-03T17:26:40.860Z,1000.96
2016-04-03T17:27:40.863Z,1000.95
2016-04-03T17:28:40.834Z,1000.95
2016-04-03T17:29:40.821Z,1000.93
2016-04-03T17:30:40.808Z,1000.92
2016-04-03T17:31:40.796Z,1000.95
2016-04-03T17:32:40.782Z,1000.93
2016-04-03T17:33:40.754Z,1000.97
2016-04-03T17:34:40.741Z,1000.95
2016-04-03T17:35:40.727Z,1000.94
2016-04-03T17:36:40.715Z,1000.98
2016-04-03T17:37:40.702Z,1000.96
2016-04-03T17:38:40.690Z,1000.99
2016-04-03T17:39:40.661Z,1000.95
2016-04-03T17:40:40.648Z,1000.95
2016-04-03T17:41:40.635Z,1000.93
2016-04-03T17:42:40.621Z,1000.91
2016-04-03T17:43:40.609Z,1000.91
2016-04-03T17:44:40.596Z,1000.96
2016-04-03T17:45:40.567Z,1000.94
2016-04-03T17:46:40.570Z,1000.9
2016-04-03T17:47:40.542Z,1000.92
2016-04-03T17:48:40.545Z,1000.92
2016-04-03T17:49:40.516Z,1000.9
2016-04-03T17:50:40.501Z,1000.93
2016-04-03T17:51:40.487Z,1000.97
2016-04-03T17:52:40.459Z,1000.91
2016-04-03T17:53:40.446Z,1000.95
2016-04-03T17:54:40.433Z,1000.94
2016-04-03T17:55:40.420Z,1000.93
2016-04-03T17:56:40.406Z,1000.94
2016-04-03T17:57:40.378Z,1000.94
2016-04-03T17:58:40.365Z,1000.95
2016-04-03T17:59:40.352Z,1000.97
2016-04-03T18:00:40.340Z,1000.96
2016-04-03T18:01:40.327Z,1001
2016-04-03T18:02:40.314Z,1001.05
2016-04-03T18:03:40.285Z,1001.04
2016-04-03T18:04:40.272Z,1001.06
2016-04-03T18:05:40.259Z,1001.08
2016-04-03T18:06:40.246Z,1001.03
2016-04-03T18:07:40.249Z,1001.06
2016-04-03T18:08:40.221Z,1001.02
2016-04-03T18:09:40.191Z,1001
2016-04-03T18:10:40.179Z,1001.01
2016-04-03T18:11:40.166Z,1001
2016-04-03T18:12:40.154Z,1000.99
2016-04-03T18:13:40.124Z,1001.01
2016-04-03T18:14:40.112Z,1001.03
2016-04-03T18:15:40.098Z,1001.01
2016-04-03T18:16:40.085Z,1001.05
2016-04-03T18:17:40.073Z,1001.05
2016-04-03T18:18:40.060Z,1001.11
2016-04-03T18:19:40.032Z,1001.09
2016-04-03T18:20:40.018Z,1001.1
2016-04-03T18:21:40.006Z,1001.12
2016-04-03T18:22:39.992Z,1001.1
2016-04-03T18:23:39.979Z,1001.1
2016-04-03T18:24:39.951Z,1001.12
2016-04-03T18:25:39.939Z,1001.14
2016-04-03T18:26:39.926Z,1001.16
2016-04-03T18:27:39.912Z,1001.13
2016-04-03T18:28:39.900Z,1001.18
2016-04-03T18:29:39.886Z,1001.15
2016-04-03T18:30:39.873Z,1001.19
2016-04-03T18:31:39.851Z,1001.19
2016-04-03T18:32:39.822Z,1001.24
2016-04-03T18:33:39.809Z,1001.2
2016-04-03T18:34:39.796Z,1001.2
2016-04-03T18:35:39.783Z,1001.2
2016-04-03T18:36:39.770Z,1001.21
2016-04-03T18:37:39.757Z,1001.2
2016-04-03T18:38:39.728Z,1001.25
2016-04-03T18:39:39.716Z,1001.24
2016-04-03T18:40:39.703Z,1001.23
2016-04-03T18:41:39.689Z,1001.22
2016-04-03T18:42:39.678Z,1001.23
2016-04-03T18:43:39.649Z,1001.19
2016-04-03T18:44:39.636Z,1001.2
2016-04-03T18:45:39.622Z,1001.19
2016-04-03T18:46:39.611Z,1001.19
2016-04-03T18:47:39.580Z,1001.23
2016-04-03T18:48:39.584Z,1001.2
2016-04-03T18:49:39.555Z,1001.21
2016-04-03T18:50:39.543Z,1001.22
2016-04-03T18:51:39.530Z,1001.21
2016-04-03T18:52:39.501Z,1001.22
2016-04-03T18:53:39.488Z,1001.22
2016-04-03T18:54:39.474Z,1001.19
2016-04-03T18:55:39.462Z,1001.21
2016-04-03T18:56:39.434Z,1001.21
2016-04-03T18:57:39.420Z,1001.22
2016-04-03T18:58:39.407Z,1001.24
2016-04-03T18:59:39.395Z,1001.21
2016-04-03T19:00:39.382Z,1001.23
2016-04-03T19:01:39.353Z,1001.2
2016-04-03T19:02:39.340Z,1001.19
2016-04-03T19:03:39.328Z,1001.17
2016-04-03T19:04:39.331Z,1001.21
2016-04-03T19:05:39.301Z,1001.2
2016-04-03T19:06:39.289Z,1001.2
2016-04-03T19:07:39.260Z,1001.19
2016-04-03T19:08:39.247Z,1001.19
2016-04-03T19:09:39.234Z,1001.17
2016-04-03T19:10:39.206Z,1001.19
2016-04-03T19:11:39.192Z,1001.17
2016-04-03T19:12:39.180Z,1001.19
2016-04-03T19:13:39.166Z,1001.17
2016-04-03T19:14:39.154Z,1001.16
2016-04-03T19:15:39.126Z,1001.16
2016-04-03T19:16:39.112Z,1001.15
2016-04-03T19:17:39.100Z,1001.14
2016-04-03T19:18:39.086Z,1001.14
2016-04-03T19:19:39.058Z,1001.16
2016-04-03T19:20:39.044Z,1001.15
2016-04-03T19:21:39.033Z,1001.17
2016-04-03T19:22:39.019Z,1001.16
2016-04-03T19:23:38.991Z,1001.19
2016-04-03T19:24:38.977Z,1001.14
2016-04-03T19:25:38.965Z,1001.12
2016-04-03T19:26:38.952Z,1001.15
2016-04-03T19:27:38.939Z,1001.15
2016-04-03T19:28:38.910Z,1001.14
2016-04-03T19:29:38.898Z,1001.13
2016-04-03T19:30:38.884Z,1001.12
2016-04-03T19:31:38.871Z,1001.11
2016-04-03T19:32:38.859Z,1001.1
2016-04-03T19:33:38.830Z,1001.09
2016-04-03T19:34:38.817Z,1001.11
2016-04-03T19:35:38.804Z,1001.1
2016-04-03T19:36:38.776Z,1001.06
2016-04-03T19:37:38.762Z,1001.09
2016-04-03T19:38:38.750Z,1001.08
2016-04-03T19:39:38.737Z,1001
2016-04-03T19:40:38.723Z,1001.05
2016-04-03T19:41:38.695Z,1001.05
2016-04-03T19:42:38.683Z,1001.01
2016-04-03T19:43:38.669Z,1001.01
2016-04-03T19:44:38.656Z,1000.99
2016-04-03T19:45:38.628Z,1001.05
2016-04-03T19:46:38.615Z,1000.99
2016-04-03T19:47:38.602Z,1001.05
2016-04-03T19:48:38.589Z,1001.04
2016-04-03T19:49:38.560Z,1001.02
2016-04-03T19:50:38.547Z,1001
2016-04-03T19:51:38.535Z,1001
2016-04-03T19:52:38.522Z,1001.02
2016-04-03T19:53:38.508Z,1001
2016-04-03T19:54:38.480Z,1001.04
2016-04-03T19:55:38.468Z,1001.03
2016-04-03T19:56:38.454Z,1001.01
2016-04-03T19:57:38.441Z,1001.02
2016-04-03T19:58:38.413Z,1000.98
2016-04-03T19:59:38.399Z,1000.99
2016-04-03T20:00:38.402Z,1001.01
2016-04-03T20:01:38.374Z,1001.01
2016-04-03T20:02:38.345Z,1000.99
2016-04-03T20:03:38.333Z,1000.95
2016-04-03T20:04:38.320Z,1000.98
2016-04-03T20:05:38.307Z,1000.98
2016-04-03T20:06:38.278Z,1000.95
2016-04-03T20:07:38.265Z,1000.95
2016-04-03T20:08:38.237Z,1000.93
2016-04-03T20:09:38.224Z,1000.92
2016-04-03T20:10:38.226Z,1000.93
2016-04-03T20:11:38.198Z,1000.93
2016-04-03T20:12:38.170Z,1000.96
2016-04-03T20:13:38.156Z,1000.95
2016-04-03T20:14:38.144Z,1000.96
2016-04-03T20:15:38.130Z,1000.97
2016-04-03T20:16:38.117Z,1000.99
2016-04-03T20:17:38.088Z,1001
2016-04-03T20:18:38.076Z,1001.02
2016-04-03T20:19:38.063Z,1001.03
2016-04-03T20:20:38.040Z,1001
2016-04-03T20:21:38.027Z,1001.02
2016-04-03T20:22:38.014Z,1000.99
2016-04-03T20:23:37.986Z,1001.01
2016-04-03T20:24:38.035Z,1000.98
2016-04-03T20:25:37.960Z,1001.01
2016-04-03T20:26:37.931Z,1001.02
2016-04-03T20:27:37.919Z,1001.03
2016-04-03T20:28:37.905Z,1001.01
2016-04-03T20:29:37.893Z,1000.98
2016-04-03T20:30:37.863Z,1000.97
2016-04-03T20:31:37.851Z,1000.99
2016-04-03T20:32:37.838Z,1000.97
2016-04-03T20:33:37.825Z,1000.99
2016-04-03T20:34:37.813Z,1001
2016-04-03T20:35:37.830Z,1001.01
2016-04-03T20:36:37.771Z,1001.04
2016-04-03T20:37:37.742Z,1000.99
2016-04-03T20:38:37.729Z,1000.99
2016-04-03T20:39:37.716Z,1000.96
2016-04-03T20:40:37.703Z,1000.96
2016-04-03T20:41:37.675Z,1001
2016-04-03T20:42:37.662Z,1000.96
2016-04-03T20:43:37.649Z,1000.93
2016-04-03T20:44:37.637Z,1000.93
2016-04-03T20:45:37.607Z,1000.94
2016-04-03T20:46:37.595Z,1000.91
2016-04-03T20:47:37.581Z,1000.91
2016-04-03T20:48:37.553Z,1000.91
2016-04-03T20:49:37.540Z,1000.9
2016-04-03T20:50:37.527Z,1000.87
2016-04-03T20:51:37.515Z,1000.87
2016-04-03T20:52:37.486Z,1000.88
2016-04-03T20:53:37.473Z,1000.87
2016-04-03T20:54:37.460Z,1000.88
2016-04-03T20:55:37.431Z,1000.93
2016-04-03T20:56:37.419Z,1000.89
2016-04-03T20:57:37.405Z,1000.9
2016-04-03T20:58:37.377Z,1000.93
2016-04-03T20:59:37.363Z,1000.89
2016-04-03T21:00:37.351Z,1000.88
2016-04-03T21:01:37.322Z,1000.9
2016-04-03T21:02:37.310Z,1000.84
2016-04-03T21:03:37.297Z,1000.84
2016-04-03T21:04:37.346Z,1000.87
2016-04-03T21:05:37.255Z,1000.86
2016-04-03T21:06:37.242Z,1000.86
2016-04-03T21:07:37.230Z,1000.83
2016-04-03T21:08:37.201Z,1000.82
2016-04-03T21:09:37.188Z,1000.86
2016-04-03T21:10:37.175Z,1000.88
2016-04-03T21:11:37.162Z,1000.89
2016-04-03T21:12:37.134Z,1000.87
2016-04-03T21:13:37.120Z,1000.86
2016-04-03T21:14:37.107Z,1000.87
2016-04-03T21:15:37.079Z,1000.88
2016-04-03T21:16:37.066Z,1000.86
2016-04-03T21:17:37.037Z,1000.91
2016-04-03T21:18:37.025Z,1000.89
2016-04-03T21:19:37.012Z,1000.9
2016-04-03T21:20:36.998Z,1000.87
2016-04-03T21:21:36.986Z,1000.85
2016-04-03T21:22:36.957Z,1000.84
2016-04-03T21:23:36.944Z,1000.89
2016-04-03T21:24:36.931Z,1000.87
2016-04-03T21:25:36.902Z,1000.85
2016-04-03T21:26:36.889Z,1000.86
2016-04-03T21:27:36.877Z,1000.86
2016-04-03T21:28:36.848Z,1000.86
2016-04-03T21:29:36.836Z,1000.9
2016-04-03T21:30:36.822Z,1000.87
2016-04-03T21:31:36.794Z,1000.87
2016-04-03T21:32:36.780Z,1000.84
2016-04-03T21:33:36.752Z,1000.88
2016-04-03T21:34:36.739Z,1000.85
2016-04-03T21:35:36.742Z,1000.81
2016-04-03T21:36:36.713Z,1000.79
2016-04-03T21:37:36.701Z,1000.83
2016-04-03T21:38:36.672Z,1000.82
2016-04-03T21:39:36.643Z,1000.8
2016-04-03T21:40:36.630Z,1000.82
2016-04-03T21:41:36.617Z,1000.82
2016-04-03T21:42:36.604Z,1000.83
2016-04-03T21:43:36.576Z,1000.82
2016-04-03T21:44:36.563Z,1000.77
2016-04-03T21:45:36.551Z,1000.82
2016-04-03T21:46:36.521Z,1000.77
2016-04-03T21:47:36.509Z,1000.8
2016-04-03T21:48:36.480Z,1000.77
2016-04-03T21:49:36.467Z,1000.79
2016-04-03T21:50:36.453Z,1000.8
2016-04-03T21:51:36.441Z,1000.83
2016-04-03T21:52:36.412Z,1000.82
2016-04-03T21:53:36.400Z,1000.81
2016-04-03T21:54:36.386Z,1000.81
2016-04-03T21:55:36.373Z,1000.81
2016-04-03T21:56:36.344Z,1000.79
2016-04-03T21:57:36.332Z,1000.79
2016-04-03T21:58:36.303Z,1000.76
2016-04-03T21:59:36.290Z,1000.78
2016-04-03T22:00:36.276Z,1000.79
2016-04-03T22:01:36.248Z,1000.74
2016-04-03T22:02:36.235Z,1000.75
2016-04-03T22:03:36.223Z,1000.74
2016-04-03T22:04:36.210Z,1000.72
2016-04-03T22:05:36.181Z,1000.68
2016-04-03T22:06:36.168Z,1000.66
2016-04-03T22:07:36.155Z,1000.68
2016-04-03T22:08:36.126Z,1000.65
2016-04-03T22:09:36.114Z,1000.58
2016-04-03T22:10:36.086Z,1000.59
2016-04-03T22:11:36.073Z,1000.52
2016-04-03T22:12:36.059Z,1000.54
2016-04-03T22:13:36.031Z,1000.55
2016-04-03T22:14:36.017Z,1000.52
2016-04-03T22:15:36.005Z,1000.57
2016-04-03T22:16:35.976Z,1000.55
2016-04-03T22:17:35.963Z,1000.55
2016-04-03T22:18:35.950Z,1000.6
2016-04-03T22:19:35.938Z,1000.55
2016-04-03T22:20:35.909Z,1000.58
2016-04-03T22:21:35.896Z,1000.55
2016-04-03T22:22:35.883Z,1000.6
2016-04-03T22:23:35.870Z,1000.62
2016-04-03T22:24:35.841Z,1000.6
2016-04-03T22:25:35.817Z,1000.63
2016-04-03T22:26:35.803Z,1000.7
2016-04-03T22:27:35.776Z,1000.64
2016-04-03T22:28:35.762Z,1000.64
2016-04-03T22:29:35.734Z,1000.68
2016-04-03T22:30:35.721Z,1000.65
2016-04-03T22:31:35.708Z,1000.67
2016-04-03T22:32:35.680Z,1000.67
2016-04-03T22:33:35.666Z,1000.65
2016-04-03T22:34:35.653Z,1000.66
2016-04-03T22:35:35.624Z,1000.66
2016-04-03T22:36:35.613Z,1000.64
2016-04-03T22:37:35.599Z,1000.63
2016-04-03T22:38:35.571Z,1000.58
2016-04-03T22:39:35.574Z,1000.61
2016-04-03T22:40:35.544Z,1000.6
2016-04-03T22:41:35.516Z,1000.6
2016-04-03T22:42:35.504Z,1000.58
2016-04-03T22:43:35.474Z,1000.56
2016-04-03T22:44:35.462Z,1000.53
2016-04-03T22:45:35.448Z,1000.52
2016-04-03T22:46:35.421Z,1000.55
2016-04-03T22:47:35.423Z,1000.55
2016-04-03T22:48:35.395Z,1000.56
2016-04-03T22:49:35.398Z,1000.51
2016-04-03T22:50:35.353Z,1000.48
2016-04-03T22:51:35.340Z,1000.51
2016-04-03T22:52:35.326Z,1000.47
2016-04-03T22:53:35.298Z,1000.51
2016-04-03T22:54:35.286Z,1000.52
2016-04-03T22:55:35.257Z,1000.52
2016-04-03T22:56:35.245Z,1000.52
2016-04-03T22:57:35.232Z,1000.56
2016-04-03T22:58:35.204Z,1000.53
2016-04-03T22:59:35.190Z,1000.51
2016-04-03T23:00:35.162Z,1000.5
2016-04-03T23:01:35.148Z,1000.49
2016-04-03T23:02:35.136Z,1000.47
2016-04-03T23:03:35.107Z,1000.49
2016-04-03T23:04:35.110Z,1000.47
2016-04-03T23:05:35.067Z,1000.49
2016-04-03T23:06:35.053Z,1000.53
2016-04-03T23:07:35.040Z,1000.53
2016-04-03T23:08:35.027Z,1000.5
2016-04-03T23:09:34.998Z,1000.52
2016-04-03T23:10:35.016Z,1000.47
2016-04-03T23:11:34.977Z,1000.47
2016-04-03T23:12:34.934Z,1000.5
2016-04-03T23:13:34.921Z,1000.46
2016-04-03T23:14:34.908Z,1000.47
2016-04-03T23:15:34.894Z,1000.46
2016-04-03T23:16:34.866Z,1000.44
2016-04-03T23:17:34.849Z,1000.47
2016-04-03T23:18:34.836Z,1000.44
2016-04-03T23:19:34.854Z,1000.43
2016-04-03T23:20:34.794Z,1000.4
2016-04-03T23:21:34.782Z,1000.38
2016-04-03T23:22:34.769Z,1000.39
2016-04-03T23:23:34.740Z,1000.41
2016-04-03T23:24:34.711Z,1000.39
2016-04-03T23:25:34.699Z,1000.36
2016-04-03T23:26:34.686Z,1000.37
2016-04-03T23:27:34.651Z,1000.36
2016-04-03T23:28:34.627Z,1000.39
2016-04-03T23:29:34.586Z,1000.38
2016-04-03T23:30:34.562Z,1000.37
2016-04-03T23:31:34.538Z,1000.36
2016-04-03T23:32:34.501Z,1000.38
2016-04-03T23:33:34.485Z,1000.37
2016-04-03T23:34:34.576Z,1000.36
2016-04-03T23:35:34.434Z,1000.28
2016-04-03T23:36:34.417Z,1000.27
2016-04-03T23:37:34.386Z,1000.25
2016-04-03T23:38:34.371Z,1000.24
2016-04-03T23:39:34.357Z,1000.21
2016-04-03T23:40:34.326Z,1000.19
2016-04-03T23:41:34.313Z,1000.19
2016-04-03T23:42:34.298Z,1000.16
2016-04-03T23:43:34.269Z,1000.19
2016-04-03T23:44:34.255Z,1000.14
2016-04-03T23:45:34.242Z,1000.16
2016-04-03T23:46:34.212Z,1000.13
2016-04-03T23:47:34.183Z,1000.17
2016-04-03T23:48:34.171Z,1000.13
2016-04-03T23:49:34.205Z,1000.14
2016-04-03T23:50:34.130Z,1000.12
2016-04-03T23:51:34.116Z,1000.13
2016-04-03T23:52:34.088Z,1000.11
2016-04-03T23:53:34.074Z,1000.09
2016-04-03T23:54:34.062Z,1000.15
2016-04-03T23:55:34.033Z,1000.12
2016-04-03T23:56:34.020Z,1000.15
2016-04-03T23:57:33.991Z,1000.15
2016-04-03T23:58:33.978Z,1000.14
2016-04-03T23:59:33.982Z,1000.18
